createdAt,value
2022-11-14T00:02:17.389Z,3.20
2022-11-14T00:04:56.732Z,3.75
2022-11-14T00:07:29.936Z,3.03
2022-11-14T00:10:00.895Z,3.33
2022-11-14T00:12:31.049Z,3.13
2022-11-14T00:14:58.046Z,3.13
2022-11-14T00:17:27.500Z,3.47
2022-11-14T00:19:59.970Z,3.47
2022-11-14T00:22:27.297Z,3.15
2022-11-14T00:25:00.284Z,3.13
2022-11-14T00:27:33.476Z,3.60
2022-11-14T00:30:02.419Z,3.65
2022-11-14T00:32:33.833Z,3.90
2022-11-14T00:35:06.337Z,3.58
2022-11-14T00:37:37.182Z,3.83
2022-11-14T00:40:18.222Z,2.85
2022-11-14T00:42:48.709Z,3.70
2022-11-14T00:45:19.175Z,2.78
2022-11-14T00:47:49.348Z,3.47
2022-11-14T00:50:20.563Z,3.20
2022-11-14T00:52:54.712Z,4.05
2022-11-14T00:55:25.428Z,3.33
2022-11-14T00:57:57.592Z,3.10
2022-11-14T01:00:29.790Z,3.97
2022-11-14T01:02:59.771Z,3.55
2022-11-14T01:05:29.258Z,3.67
2022-11-14T01:08:01.654Z,4.25
2022-11-14T01:10:34.919Z,4.03
2022-11-14T01:13:03.967Z,3.38
2022-11-14T01:15:33.766Z,3.60
2022-11-14T01:18:04.329Z,3.40
2022-11-14T01:20:34.136Z,3.47
2022-11-14T01:23:01.018Z,3.38
2022-11-14T01:25:30.177Z,3.20
2022-11-14T01:28:02.921Z,3.58
2022-11-14T01:30:36.027Z,3.60
2022-11-14T01:33:08.449Z,3.58
2022-11-14T01:35:39.369Z,3.75
2022-11-14T01:38:06.520Z,3.80
2022-11-14T01:40:36.134Z,3.60
2022-11-14T01:43:28.921Z,3.70
2022-11-14T01:46:09.450Z,3.30
2022-11-14T01:48:39.849Z,3.35
2022-11-14T01:51:15.948Z,3.97
2022-11-14T01:53:55.861Z,3.70
2022-11-14T01:56:35.238Z,3.17
2022-11-14T01:59:13.016Z,3.10
2022-11-14T02:01:46.386Z,3.15
2022-11-14T02:04:25.626Z,3.80
2022-11-14T02:07:11.023Z,3.28
2022-11-14T02:09:40.658Z,3.17
2022-11-14T02:12:12.500Z,3.35
2022-11-14T02:14:48.807Z,3.35
2022-11-14T02:17:29.595Z,3.42
2022-11-14T02:20:12.558Z,3.58
2022-11-14T02:22:45.839Z,3.25
2022-11-14T02:25:26.721Z,3.58
2022-11-14T02:28:05.761Z,3.60
2022-11-14T02:30:38.600Z,2.78
2022-11-14T02:33:12.466Z,4.00
2022-11-14T02:35:43.850Z,4.03
2022-11-14T02:38:14.438Z,3.72
2022-11-14T02:40:46.660Z,3.40
2022-11-14T02:43:21.438Z,3.30
2022-11-14T02:45:51.808Z,3.50
2022-11-14T02:48:24.208Z,3.10
2022-11-14T02:50:57.177Z,3.03
2022-11-14T02:53:24.143Z,3.38
2022-11-14T02:55:54.505Z,3.25
2022-11-14T02:58:28.945Z,2.90
2022-11-14T03:03:52.656Z,3.53
2022-11-14T03:06:22.531Z,3.42
2022-11-14T03:08:57.565Z,3.17
2022-11-14T03:11:31.419Z,3.20
2022-11-14T03:14:09.097Z,3.70
2022-11-14T03:16:41.969Z,3.65
2022-11-14T03:19:14.925Z,2.97
2022-11-14T03:21:48.016Z,3.35
2022-11-14T03:24:14.946Z,3.25
2022-11-14T03:26:48.135Z,3.75
2022-11-14T03:29:18.128Z,3.50
2022-11-14T03:31:48.111Z,3.30
2022-11-14T03:34:21.333Z,3.00
2022-11-14T03:36:50.880Z,4.03
2022-11-14T03:39:21.361Z,3.10
2022-11-14T03:41:50.890Z,3.75
2022-11-14T03:44:22.860Z,4.32
2022-11-14T03:46:49.775Z,3.75
2022-11-14T03:49:22.874Z,3.90
2022-11-14T03:51:53.250Z,3.53
2022-11-14T03:54:20.154Z,3.35
2022-11-14T03:56:53.441Z,3.45
2022-11-14T03:59:26.339Z,3.50
2022-11-14T04:01:59.341Z,3.40
2022-11-14T04:04:32.234Z,3.40
2022-11-14T04:07:11.370Z,3.42
2022-11-14T04:09:47.408Z,3.00
2022-11-14T04:12:18.613Z,3.70
2022-11-14T04:14:48.780Z,3.95
2022-11-14T04:17:17.586Z,3.47
2022-11-14T04:19:44.539Z,3.63
2022-11-14T04:22:17.818Z,3.95
2022-11-14T04:24:50.780Z,4.13
2022-11-14T04:27:24.210Z,4.00
2022-11-14T04:29:51.126Z,3.72
2022-11-14T04:32:18.898Z,3.25
2022-11-14T04:34:49.014Z,3.45
2022-11-14T04:37:22.817Z,3.33
2022-11-14T04:39:54.379Z,3.40
2022-11-14T04:42:58.375Z,3.60
2022-11-14T04:45:30.816Z,3.50
2022-11-14T04:48:15.012Z,3.35
2022-11-14T04:50:45.741Z,4.07
2022-11-14T04:53:18.653Z,3.92
2022-11-14T04:55:51.625Z,3.50
2022-11-14T04:58:24.492Z,3.67
2022-11-14T05:00:51.314Z,3.83
2022-11-14T05:03:21.272Z,3.15
2022-11-14T05:06:00.660Z,3.63
2022-11-14T05:08:33.817Z,3.38
2022-11-14T05:11:04.181Z,3.15
2022-11-14T05:13:34.438Z,3.50
2022-11-14T05:16:04.980Z,3.55
2022-11-14T05:18:40.664Z,3.50
2022-11-14T05:21:17.894Z,3.80
2022-11-14T05:23:48.286Z,3.63
2022-11-14T05:26:22.718Z,3.67
2022-11-14T05:28:55.706Z,3.38
2022-11-14T05:31:25.882Z,3.58
2022-11-14T05:33:58.792Z,2.67
2022-11-14T05:36:28.849Z,3.38
2022-11-14T05:38:58.892Z,3.75
2022-11-14T05:41:34.121Z,3.10
2022-11-14T05:44:04.201Z,3.72
2022-11-14T05:46:37.520Z,2.90
2022-11-14T05:49:09.143Z,4.00
2022-11-14T05:51:40.888Z,3.20
2022-11-14T05:54:11.393Z,3.28
2022-11-14T05:56:42.962Z,3.70
2022-11-14T05:59:13.022Z,3.40
2022-11-14T06:01:43.754Z,3.25
2022-11-14T06:04:15.539Z,3.28
2022-11-14T06:06:45.376Z,3.45
2022-11-14T06:09:21.786Z,2.78
2022-11-14T06:11:55.669Z,3.40
2022-11-14T06:14:35.552Z,2.92
2022-11-14T06:17:06.628Z,3.15
2022-11-14T06:19:43.217Z,3.63
2022-11-14T06:22:10.413Z,3.10
2022-11-14T06:24:42.249Z,4.38
2022-11-14T06:27:12.702Z,4.30
2022-11-14T06:29:42.135Z,5.10
2022-11-14T06:32:12.617Z,5.22
2022-11-14T06:34:48.920Z,5.18
2022-11-14T06:37:21.155Z,4.97
2022-11-14T06:39:47.997Z,4.70
2022-11-14T06:42:20.909Z,4.65
2022-11-14T06:44:49.719Z,4.43
2022-11-14T06:47:25.595Z,4.53
2022-11-14T06:50:01.621Z,5.25
2022-11-14T06:52:31.437Z,5.45
2022-11-14T06:55:02.201Z,5.25
2022-11-14T06:57:33.399Z,4.45
2022-11-14T07:00:07.986Z,5.85
2022-11-14T07:02:40.223Z,6.25
2022-11-14T07:05:07.920Z,5.07
2022-11-14T07:07:41.156Z,4.43
2022-11-14T07:10:11.849Z,4.50
2022-11-14T07:12:41.881Z,5.93
2022-11-14T07:15:09.199Z,4.32
2022-11-14T07:17:36.784Z,5.95
2022-11-14T07:20:07.851Z,5.20
2022-11-14T07:22:34.774Z,6.80
2022-11-14T07:25:06.030Z,6.45
2022-11-14T07:27:38.015Z,5.40
2022-11-14T07:30:11.856Z,5.90
2022-11-14T07:32:39.253Z,6.00
2022-11-14T07:35:06.458Z,6.20
2022-11-14T07:37:36.977Z,6.00
2022-11-14T07:40:08.190Z,6.40
2022-11-14T07:42:38.708Z,6.05
2022-11-14T07:45:09.814Z,5.90
2022-11-14T07:47:40.228Z,6.57
2022-11-14T07:50:20.085Z,5.82
2022-11-14T07:52:50.934Z,4.07
2022-11-14T07:55:21.200Z,5.65
2022-11-14T07:57:51.328Z,6.38
2022-11-14T08:00:18.537Z,4.32
2022-11-14T08:02:51.508Z,1.90
2022-11-14T08:05:21.850Z,5.57
2022-11-14T08:07:57.291Z,6.10
2022-11-14T08:10:33.564Z,5.78
2022-11-14T08:13:30.569Z,5.85
2022-11-14T08:15:54.702Z,5.47
2022-11-14T08:18:28.560Z,5.85
2022-11-14T08:20:58.000Z,5.70
2022-11-14T08:23:28.418Z,5.65
2022-11-14T08:25:58.427Z,4.82
2022-11-14T08:28:29.081Z,5.68
2022-11-14T08:31:03.157Z,6.38
2022-11-14T08:33:30.841Z,4.88
2022-11-14T08:36:04.725Z,4.90
2022-11-14T08:38:37.415Z,5.85
2022-11-14T08:41:05.494Z,5.82
2022-11-14T08:43:32.838Z,4.88
2022-11-14T08:46:04.413Z,4.18
2022-11-14T08:48:36.964Z,4.28
2022-11-14T08:51:09.670Z,5.30
2022-11-14T08:53:39.990Z,3.65
2022-11-14T08:56:07.119Z,4.80
2022-11-14T08:58:40.319Z,5.40
2022-11-14T09:01:07.682Z,4.10
2022-11-14T09:03:37.788Z,4.10
2022-11-14T09:06:08.038Z,3.38
2022-11-14T09:08:40.900Z,5.97
2022-11-14T09:11:18.895Z,4.32
2022-11-14T09:13:52.696Z,4.07
2022-11-14T09:16:25.169Z,5.18
2022-11-14T09:18:52.318Z,4.80
2022-11-14T09:21:25.580Z,5.05
2022-11-14T09:23:55.153Z,4.93
2022-11-14T09:26:29.685Z,5.28
2022-11-14T09:29:01.188Z,5.43
2022-11-14T09:31:37.822Z,4.93
2022-11-14T09:34:07.612Z,4.63
2022-11-14T09:36:34.788Z,5.80
2022-11-14T09:39:10.771Z,3.65
2022-11-14T09:41:51.145Z,4.25
2022-11-14T09:44:41.852Z,4.47
2022-11-14T09:47:16.618Z,3.45
2022-11-14T09:49:53.798Z,4.68
2022-11-14T09:52:27.330Z,4.53
2022-11-14T09:55:02.900Z,3.40
2022-11-14T09:57:32.746Z,4.15
2022-11-14T10:00:03.479Z,3.38
2022-11-14T10:02:44.444Z,3.75
2022-11-14T10:05:29.141Z,3.40
2022-11-14T10:08:18.837Z,4.07
2022-11-14T10:11:05.729Z,2.88
2022-11-14T10:13:41.583Z,2.90
2022-11-14T10:16:27.057Z,4.10
2022-11-14T10:19:12.544Z,3.80
2022-11-14T10:21:58.160Z,2.70
2022-11-14T10:24:43.738Z,4.50
2022-11-14T10:27:23.513Z,3.03
2022-11-14T10:30:02.943Z,2.80
2022-11-14T10:32:51.727Z,2.47
2022-11-14T10:35:33.860Z,4.10
2022-11-14T10:38:13.854Z,3.63
2022-11-14T10:40:49.044Z,4.13
2022-11-14T10:43:24.581Z,3.97
2022-11-14T10:45:57.572Z,3.65
2022-11-14T10:48:33.959Z,3.85
2022-11-14T10:51:14.090Z,4.30
2022-11-14T10:53:56.030Z,3.72
2022-11-14T10:56:26.132Z,2.10
2022-11-14T10:58:58.972Z,4.43
2022-11-14T11:01:36.640Z,4.38
2022-11-14T11:04:16.373Z,3.03
2022-11-14T11:06:53.632Z,3.58
2022-11-14T11:09:44.835Z,4.28
2022-11-14T11:12:20.860Z,4.65
2022-11-14T11:14:57.459Z,4.45
2022-11-14T11:17:37.069Z,3.78
2022-11-14T11:20:24.308Z,3.95
2022-11-14T11:23:05.530Z,4.47
2022-11-14T11:25:38.871Z,5.10
2022-11-14T11:28:14.350Z,3.95
2022-11-14T11:31:03.065Z,3.40
2022-11-14T11:33:32.757Z,3.53
2022-11-14T11:36:05.237Z,4.45
2022-11-14T11:38:36.518Z,3.67
2022-11-14T11:42:00.852Z,3.55
2022-11-14T11:44:13.878Z,3.47
2022-11-14T11:46:52.933Z,3.78
2022-11-14T11:49:25.324Z,1.98
2022-11-14T11:51:54.898Z,3.40
2022-11-14T11:54:38.948Z,3.80
2022-11-14T11:57:17.162Z,3.65
2022-11-14T11:59:59.715Z,2.78
2022-11-14T12:02:30.026Z,2.97
2022-11-14T12:05:01.363Z,2.60
2022-11-14T12:07:41.153Z,2.53
2022-11-14T12:10:19.772Z,2.60
2022-11-14T12:12:50.443Z,2.60
2022-11-14T12:15:23.564Z,2.13
2022-11-14T12:18:05.818Z,2.45
2022-11-14T12:20:52.990Z,2.45
2022-11-14T12:23:35.611Z,2.47
2022-11-14T12:26:15.022Z,2.65
2022-11-14T12:28:45.860Z,3.30
2022-11-14T12:31:19.662Z,2.85
2022-11-14T12:34:06.903Z,3.45
2022-11-14T12:36:38.219Z,2.88
2022-11-14T12:39:10.138Z,2.22
2022-11-14T12:41:40.346Z,2.38
2022-11-14T12:44:18.354Z,2.35
2022-11-14T12:47:03.659Z,2.78
2022-11-14T12:49:48.632Z,2.28
2022-11-14T12:52:37.615Z,2.75
2022-11-14T12:55:10.014Z,2.55
2022-11-14T12:57:51.194Z,2.58
2022-11-14T13:00:21.747Z,2.40
2022-11-14T13:03:07.176Z,2.50
2022-11-14T13:05:56.740Z,2.22
2022-11-14T13:08:42.111Z,2.67
2022-11-14T13:12:02.603Z,1.92
2022-11-14T13:14:48.561Z,1.92
2022-11-14T13:17:36.680Z,2.70
2022-11-14T13:20:42.417Z,2.15
2022-11-14T13:23:30.706Z,2.60
2022-11-14T13:26:10.268Z,2.00
2022-11-14T13:28:50.248Z,2.45
2022-11-14T13:31:21.863Z,2.42
2022-11-14T13:33:52.025Z,2.40
2022-11-14T13:36:39.728Z,2.50
2022-11-14T13:39:21.480Z,2.53
2022-11-14T13:41:54.048Z,2.70
2022-11-14T13:44:35.980Z,2.42
2022-11-14T13:47:22.300Z,2.47
2022-11-14T13:50:07.738Z,2.60
2022-11-14T13:52:45.145Z,2.83
2022-11-14T13:55:32.623Z,3.00
2022-11-14T13:58:08.962Z,2.20
2022-11-14T14:01:08.483Z,2.42
2022-11-14T14:04:26.268Z,2.67
2022-11-14T14:07:02.354Z,2.70
2022-11-14T14:09:48.429Z,2.65
2022-11-14T14:12:24.735Z,3.20
2022-11-14T14:15:08.944Z,2.65
2022-11-14T14:17:41.653Z,2.58
2022-11-14T14:20:20.700Z,2.85
2022-11-14T14:23:14.335Z,2.85
2022-11-14T14:25:52.136Z,3.15
2022-11-14T14:28:22.604Z,2.85
2022-11-14T14:31:07.613Z,2.95
2022-11-14T14:33:47.425Z,3.30
2022-11-14T14:36:21.070Z,3.35
2022-11-14T14:38:51.036Z,3.22
2022-11-14T14:41:25.961Z,3.08
2022-11-14T14:43:58.533Z,2.85
2022-11-14T14:46:34.662Z,3.53
2022-11-14T14:49:08.253Z,3.03
2022-11-14T14:51:36.434Z,3.17
2022-11-14T14:54:05.975Z,3.38
2022-11-14T14:56:38.875Z,3.03
2022-11-14T14:59:23.278Z,2.58
2022-11-14T15:01:54.276Z,2.88
2022-11-14T15:04:25.824Z,3.45
2022-11-14T15:06:59.870Z,2.75
2022-11-14T15:09:30.327Z,2.67
2022-11-14T15:12:00.845Z,3.17
2022-11-14T15:14:36.099Z,2.88
2022-11-14T15:17:06.873Z,3.38
2022-11-14T15:19:50.254Z,3.00
2022-11-14T15:22:20.314Z,3.30
2022-11-14T15:25:05.852Z,3.28
2022-11-14T15:27:38.026Z,2.78
2022-11-14T15:30:12.346Z,3.38
2022-11-14T15:32:48.329Z,3.30
2022-11-14T15:35:30.726Z,3.90
2022-11-14T15:38:53.768Z,3.13
2022-11-14T15:41:20.100Z,3.80
2022-11-14T15:43:54.245Z,3.55
2022-11-14T15:46:46.540Z,4.05
2022-11-14T15:49:21.665Z,3.13
2022-11-14T15:52:01.886Z,2.88
2022-11-14T15:54:38.787Z,3.30
2022-11-14T15:57:21.164Z,3.30
2022-11-14T15:59:51.559Z,3.10
2022-11-14T16:02:29.673Z,3.20
2022-11-14T16:05:01.255Z,3.38
2022-11-14T16:07:31.526Z,2.92
2022-11-14T16:10:00.914Z,2.78
2022-11-14T16:12:31.267Z,2.78
2022-11-14T16:15:04.086Z,2.55
2022-11-14T16:17:38.387Z,3.15
2022-11-14T16:20:14.344Z,3.20
2022-11-14T16:22:43.945Z,2.28
2022-11-14T16:25:21.136Z,3.10
2022-11-14T16:27:51.410Z,2.72
2022-11-14T16:30:22.260Z,3.05
2022-11-14T16:32:52.909Z,3.35
2022-11-14T16:35:29.504Z,2.72
2022-11-14T16:38:00.087Z,3.08
2022-11-14T16:40:33.132Z,2.75
2022-11-14T16:43:00.840Z,3.13
2022-11-14T16:45:30.979Z,2.90
2022-11-14T16:48:00.557Z,3.00
2022-11-14T16:50:32.798Z,3.00
2022-11-14T16:52:59.839Z,2.47
2022-11-14T16:55:27.570Z,3.15
2022-11-14T16:57:56.067Z,3.55
2022-11-14T17:00:29.588Z,3.58
2022-11-14T17:02:59.306Z,4.22
2022-11-14T17:05:32.195Z,3.50
2022-11-14T17:07:59.644Z,4.35
2022-11-14T17:10:29.824Z,4.50
2022-11-14T17:13:01.019Z,4.97
2022-11-14T17:15:31.446Z,2.80
2022-11-14T17:17:58.488Z,2.70
2022-11-14T17:20:28.502Z,3.60
2022-11-14T17:23:01.351Z,3.45
2022-11-14T17:25:34.978Z,4.47
2022-11-14T17:28:08.264Z,4.38
2022-11-14T17:30:37.652Z,3.95
2022-11-14T17:33:07.503Z,2.42
2022-11-14T17:35:37.637Z,3.50
2022-11-14T17:38:05.799Z,5.03
2022-11-14T17:40:35.701Z,4.70
2022-11-14T17:43:06.238Z,5.43
2022-11-14T17:45:33.484Z,6.47
2022-11-14T17:48:03.921Z,5.38
2022-11-14T17:50:37.617Z,6.45
2022-11-14T17:53:14.416Z,5.78
2022-11-14T17:55:45.752Z,5.90
2022-11-14T17:58:16.074Z,5.25
2022-11-14T18:00:50.945Z,6.10
2022-11-14T18:03:27.515Z,5.28
2022-11-14T18:06:07.991Z,4.95
2022-11-14T18:08:38.510Z,5.40
2022-11-14T18:11:10.430Z,6.13
2022-11-14T18:13:40.736Z,5.78
2022-11-14T18:16:17.607Z,5.00
2022-11-14T18:18:47.484Z,5.65
2022-11-14T18:21:24.654Z,6.90
2022-11-14T18:23:57.421Z,6.70
2022-11-14T18:26:29.226Z,5.90
2022-11-14T18:29:03.306Z,6.43
2022-11-14T18:31:32.851Z,5.43
2022-11-14T18:34:06.191Z,5.75
2022-11-14T18:36:38.275Z,5.78
2022-11-14T18:39:08.484Z,5.75
2022-11-14T18:41:41.789Z,5.72
2022-11-14T18:44:12.656Z,5.15
2022-11-14T18:46:45.080Z,3.92
2022-11-14T18:49:14.621Z,5.20
2022-11-14T18:51:43.585Z,5.25
2022-11-14T18:54:15.300Z,4.97
2022-11-14T18:56:45.323Z,5.28
2022-11-14T18:59:19.344Z,4.65
2022-11-14T19:01:51.864Z,4.55
2022-11-14T19:04:22.612Z,6.15
2022-11-14T19:06:52.866Z,4.95
2022-11-14T19:09:25.731Z,5.60
2022-11-14T19:12:11.051Z,2.45
2022-11-14T19:14:37.975Z,3.97
2022-11-14T19:17:08.741Z,5.28
2022-11-14T19:19:41.267Z,5.30
2022-11-14T19:22:15.925Z,5.82
2022-11-14T19:24:46.846Z,5.85
2022-11-14T19:27:14.237Z,4.05
2022-11-14T19:29:47.892Z,4.03
2022-11-14T19:32:19.698Z,4.57
2022-11-14T19:34:55.627Z,3.60
2022-11-14T19:37:32.344Z,3.97
2022-11-14T19:40:05.305Z,4.88
2022-11-14T19:42:35.525Z,4.65
2022-11-14T19:45:02.322Z,4.57
2022-11-14T19:47:33.403Z,5.05
2022-11-14T19:50:00.706Z,4.53
2022-11-14T19:52:30.833Z,5.28
2022-11-14T19:55:08.072Z,4.20
2022-11-14T19:57:35.392Z,4.70
2022-11-14T20:00:08.774Z,4.97
2022-11-14T20:02:43.959Z,4.43
2022-11-14T20:05:13.455Z,5.38
2022-11-14T20:07:45.886Z,4.68
2022-11-14T20:10:12.969Z,5.07
2022-11-14T20:12:42.507Z,3.55
2022-11-14T20:15:13.255Z,4.30
2022-11-14T20:17:40.967Z,4.10
2022-11-14T20:20:08.064Z,3.80
2022-11-14T20:22:35.163Z,4.88
2022-11-14T20:25:06.520Z,4.22
2022-11-14T20:27:33.819Z,3.88
2022-11-14T20:30:03.764Z,4.55
2022-11-14T20:32:33.674Z,3.92
2022-11-14T20:35:03.461Z,3.65
2022-11-14T20:37:30.484Z,2.83
2022-11-14T20:39:58.509Z,3.78
2022-11-14T20:42:28.131Z,3.00
2022-11-14T20:45:01.378Z,3.63
2022-11-14T20:47:32.320Z,2.40
2022-11-14T20:50:03.622Z,3.10
2022-11-14T20:52:31.640Z,2.90
2022-11-14T20:55:01.347Z,2.78
2022-11-14T20:57:34.025Z,2.88
2022-11-14T21:00:04.634Z,3.03
2022-11-14T21:02:34.949Z,2.65
2022-11-14T21:05:07.578Z,2.60
2022-11-14T21:07:36.966Z,2.58
2022-11-14T21:10:22.667Z,2.80
2022-11-14T21:13:11.081Z,2.58
2022-11-14T21:15:41.065Z,2.55
2022-11-14T21:18:11.527Z,3.63
2022-11-14T21:20:41.675Z,3.75
2022-11-14T21:23:08.540Z,4.00
2022-11-14T21:25:41.806Z,3.42
2022-11-14T21:28:08.713Z,3.75
2022-11-14T21:30:36.092Z,3.60
2022-11-14T21:33:03.240Z,4.03
2022-11-14T21:35:35.514Z,3.95
2022-11-14T21:38:02.525Z,3.85
2022-11-14T21:40:29.692Z,3.83
2022-11-14T21:43:02.662Z,3.53
2022-11-14T21:45:36.034Z,3.00
2022-11-14T21:48:06.343Z,2.65
2022-11-14T21:50:39.584Z,2.50
2022-11-14T21:53:16.356Z,3.47
2022-11-14T21:55:53.369Z,3.40
2022-11-14T21:58:21.538Z,2.45
2022-11-14T22:00:53.936Z,3.97
2022-11-14T22:03:39.475Z,3.83
2022-11-14T22:06:11.279Z,3.67
2022-11-14T22:08:44.184Z,3.97
2022-11-14T22:11:11.442Z,3.00
2022-11-14T22:13:38.766Z,3.10
2022-11-14T22:16:20.458Z,3.97
2022-11-14T22:19:05.628Z,2.60
2022-11-14T22:21:35.807Z,2.90
2022-11-14T22:24:03.025Z,3.08
2022-11-14T22:26:36.329Z,2.58
2022-11-14T22:29:06.276Z,2.90
2022-11-14T22:31:37.662Z,3.00
2022-11-14T22:34:10.268Z,3.22
2022-11-14T22:36:37.312Z,2.65
2022-11-14T22:39:07.543Z,3.00
2022-11-14T22:41:40.054Z,2.72
2022-11-14T22:44:10.145Z,2.80
2022-11-14T22:46:41.872Z,3.05
2022-11-14T22:49:15.029Z,3.05
2022-11-14T22:51:50.097Z,2.63
2022-11-14T22:54:29.405Z,2.58
2022-11-14T22:57:00.468Z,2.65
2022-11-14T22:59:30.403Z,2.42
2022-11-14T23:01:57.394Z,2.83
2022-11-14T23:04:29.891Z,3.00
2022-11-14T23:06:56.982Z,2.90
2022-11-14T23:09:27.691Z,3.25
2022-11-14T23:12:00.952Z,2.83
2022-11-14T23:14:28.043Z,4.07
2022-11-14T23:16:58.108Z,3.25
2022-11-14T23:19:30.854Z,3.20
2022-11-14T23:22:01.190Z,4.07
2022-11-14T23:24:33.513Z,3.08
2022-11-14T23:27:06.966Z,3.20
2022-11-14T23:29:35.908Z,3.13
2022-11-14T23:32:08.348Z,2.90
2022-11-14T23:34:37.443Z,3.85
2022-11-14T23:37:07.848Z,3.13
2022-11-14T23:39:38.152Z,4.15
2022-11-14T23:42:08.335Z,2.65
2022-11-14T23:44:35.665Z,2.92
2022-11-14T23:47:08.030Z,2.95
2022-11-14T23:49:39.663Z,3.17
2022-11-14T23:52:09.399Z,3.42
2022-11-14T23:54:45.187Z,3.45
2022-11-14T23:57:12.179Z,2.25
2022-11-14T23:59:41.842Z,2.63
